ENNM/OSY METAR and TAF weather

Enter ICAO airport designator
Station Type Date Time Source
ENNM METAR 2018/06/24 19:50 UTC NOAA

ENNM 241950Z 21009KT 180V240 9999 -RADZ BKN024 12/10 Q1015


Station Type Date Time Source
ENNM Decoded METAR 2018/06/24 19:50 UTC NOAA

Namsos Lufthavn, Norway (ENNM) 64-28N 011-35E 2M
Jun 24, 2018 - 03:50 PM EDT / 2018.06.24 1950 UTC
Wind: from the SSW (210 degrees) at 10 MPH (9 KT) (direction variable):0
Visibility: greater than 7 mile(s):0
Sky conditions: mostly cloudy
Weather: light rain, drizzle
Temperature: 53 F (12 C)
Dew Point: 50 F (10 C)
Relative Humidity: 87%
Pressure (altimeter): 29.97 in. Hg (1015 hPa)
ob: ENNM 241950Z 21009KT 180V240 9999 -RADZ BKN024 12/10 Q1015
cycle: 20

Station Type Date Time Source
ENNM TAF UTC NOAA

Error!


Example: see airport list